sensor_id;sensor_type;location;lat;lon;timestamp;P1;durP1;ratioP1;P2;durP2;ratioP2
11955;SDS011;6038;52.276;10.530;2023-07-13T00:02:14;2.88;;;1.80;;
11955;SDS011;6038;52.276;10.530;2023-07-13T00:04:40;2.70;;;1.85;;
11955;SDS011;6038;52.276;10.530;2023-07-13T00:07:06;3.90;;;2.38;;
11955;SDS011;6038;52.276;10.530;2023-07-13T00:09:32;4.07;;;2.15;;
11955;SDS011;6038;52.276;10.530;2023-07-13T00:11:59;3.65;;;2.15;;
11955;SDS011;6038;52.276;10.530;2023-07-13T00:14:25;4.28;;;2.42;;
11955;SDS011;6038;52.276;10.530;2023-07-13T00:16:52;4.03;;;2.22;;
11955;SDS011;6038;52.276;10.530;2023-07-13T00:19:18;4.28;;;2.20;;
11955;SDS011;6038;52.276;10.530;2023-07-13T00:21:44;3.30;;;2.25;;
11955;SDS011;6038;52.276;10.530;2023-07-13T00:24:11;3.78;;;2.15;;
11955;SDS011;6038;52.276;10.530;2023-07-13T00:26:38;3.03;;;2.13;;
11955;SDS011;6038;52.276;10.530;2023-07-13T00:29:04;3.10;;;2.15;;
11955;SDS011;6038;52.276;10.530;2023-07-13T00:31:34;4.05;;;2.30;;
11955;SDS011;6038;52.276;10.530;2023-07-13T00:34:01;4.25;;;2.13;;
11955;SDS011;6038;52.276;10.530;2023-07-13T00:36:27;4.15;;;2.40;;
11955;SDS011;6038;52.276;10.530;2023-07-13T00:38:53;2.85;;;2.10;;
11955;SDS011;6038;52.276;10.530;2023-07-13T00:41:19;5.43;;;2.30;;
11955;SDS011;6038;52.276;10.530;2023-07-13T00:43:45;3.37;;;2.30;;
11955;SDS011;6038;52.276;10.530;2023-07-13T00:46:15;3.53;;;2.40;;
11955;SDS011;6038;52.276;10.530;2023-07-13T00:48:41;3.55;;;2.20;;
11955;SDS011;6038;52.276;10.530;2023-07-13T00:51:08;2.57;;;2.20;;
11955;SDS011;6038;52.276;10.530;2023-07-13T00:53:35;4.40;;;2.30;;
11955;SDS011;6038;52.276;10.530;2023-07-13T00:56:01;4.72;;;2.30;;
11955;SDS011;6038;52.276;10.530;2023-07-13T00:58:28;3.13;;;2.35;;
11955;SDS011;6038;52.276;10.530;2023-07-13T01:00:54;5.20;;;2.30;;
11955;SDS011;6038;52.276;10.530;2023-07-13T01:03:20;4.70;;;2.30;;
11955;SDS011;6038;52.276;10.530;2023-07-13T01:05:47;3.40;;;2.10;;
11955;SDS011;6038;52.276;10.530;2023-07-13T01:08:14;3.63;;;2.17;;
11955;SDS011;6038;52.276;10.530;2023-07-13T01:10:40;3.93;;;2.10;;
11955;SDS011;6038;52.276;10.530;2023-07-13T01:13:07;4.37;;;2.10;;
11955;SDS011;6038;52.276;10.530;2023-07-13T01:15:41;4.50;;;2.03;;
11955;SDS011;6038;52.276;10.530;2023-07-13T01:18:11;2.53;;;1.73;;
11955;SDS011;6038;52.276;10.530;2023-07-13T01:20:38;3.40;;;2.20;;
11955;SDS011;6038;52.276;10.530;2023-07-13T01:23:08;3.50;;;2.30;;
11955;SDS011;6038;52.276;10.530;2023-07-13T01:25:35;4.30;;;2.27;;
11955;SDS011;6038;52.276;10.530;2023-07-13T01:28:02;5.07;;;2.30;;
11955;SDS011;6038;52.276;10.530;2023-07-13T01:30:28;2.93;;;2.03;;
11955;SDS011;6038;52.276;10.530;2023-07-13T01:32:54;5.27;;;2.17;;
11955;SDS011;6038;52.276;10.530;2023-07-13T01:35:20;3.50;;;2.03;;
11955;SDS011;6038;52.276;10.530;2023-07-13T01:37:46;3.42;;;2.00;;
11955;SDS011;6038;52.276;10.530;2023-07-13T01:40:12;3.17;;;2.10;;
11955;SDS011;6038;52.276;10.530;2023-07-13T01:42:38;4.13;;;2.13;;
11955;SDS011;6038;52.276;10.530;2023-07-13T01:45:05;3.57;;;2.33;;
11955;SDS011;6038;52.276;10.530;2023-07-13T01:47:31;5.57;;;2.60;;
11955;SDS011;6038;52.276;10.530;2023-07-13T01:49:57;5.57;;;2.70;;
11955;SDS011;6038;52.276;10.530;2023-07-13T01:52:23;4.10;;;2.67;;
11955;SDS011;6038;52.276;10.530;2023-07-13T01:54:49;7.78;;;2.20;;
11955;SDS011;6038;52.276;10.530;2023-07-13T01:57:15;6.23;;;2.43;;
11955;SDS011;6038;52.276;10.530;2023-07-13T01:59:42;6.53;;;2.50;;
11955;SDS011;6038;52.276;10.530;2023-07-13T02:02:08;5.10;;;2.63;;
11955;SDS011;6038;52.276;10.530;2023-07-13T02:04:34;3.78;;;2.53;;
11955;SDS011;6038;52.276;10.530;2023-07-13T02:07:00;5.50;;;2.53;;
11955;SDS011;6038;52.276;10.530;2023-07-13T02:09:26;5.27;;;2.40;;
11955;SDS011;6038;52.276;10.530;2023-07-13T02:11:52;5.37;;;2.50;;
11955;SDS011;6038;52.276;10.530;2023-07-13T02:14:18;7.27;;;2.43;;
11955;SDS011;6038;52.276;10.530;2023-07-13T02:16:44;4.10;;;2.60;;
11955;SDS011;6038;52.276;10.530;2023-07-13T02:19:10;4.00;;;2.33;;
11955;SDS011;6038;52.276;10.530;2023-07-13T02:21:36;6.17;;;2.53;;
11955;SDS011;6038;52.276;10.530;2023-07-13T02:24:02;5.73;;;2.53;;
11955;SDS011;6038;52.276;10.530;2023-07-13T02:26:28;4.53;;;2.63;;
11955;SDS011;6038;52.276;10.530;2023-07-13T02:28:54;4.93;;;2.70;;
11955;SDS011;6038;52.276;10.530;2023-07-13T02:31:20;7.03;;;2.53;;
11955;SDS011;6038;52.276;10.530;2023-07-13T02:33:46;5.77;;;2.50;;
11955;SDS011;6038;52.276;10.530;2023-07-13T02:36:12;4.37;;;2.50;;
11955;SDS011;6038;52.276;10.530;2023-07-13T02:38:41;5.67;;;2.30;;
11955;SDS011;6038;52.276;10.530;2023-07-13T02:41:07;4.87;;;2.43;;
11955;SDS011;6038;52.276;10.530;2023-07-13T02:43:34;5.17;;;2.60;;
11955;SDS011;6038;52.276;10.530;2023-07-13T02:46:01;5.13;;;2.70;;
11955;SDS011;6038;52.276;10.530;2023-07-13T02:48:32;4.30;;;2.30;;
11955;SDS011;6038;52.276;10.530;2023-07-13T02:50:58;3.07;;;2.20;;
11955;SDS011;6038;52.276;10.530;2023-07-13T02:53:24;3.33;;;2.20;;
11955;SDS011;6038;52.276;10.530;2023-07-13T02:55:50;4.03;;;2.17;;
11955;SDS011;6038;52.276;10.530;2023-07-13T02:58:16;2.93;;;2.23;;
11955;SDS011;6038;52.276;10.530;2023-07-13T03:00:43;3.57;;;2.13;;
11955;SDS011;6038;52.276;10.530;2023-07-13T03:03:09;4.13;;;2.10;;
11955;SDS011;6038;52.276;10.530;2023-07-13T03:05:36;5.40;;;2.30;;
11955;SDS011;6038;52.276;10.530;2023-07-13T03:08:02;4.30;;;2.47;;
11955;SDS011;6038;52.276;10.530;2023-07-13T03:10:29;4.70;;;2.60;;
11955;SDS011;6038;52.276;10.530;2023-07-13T03:12:55;3.13;;;2.20;;
11955;SDS011;6038;52.276;10.530;2023-07-13T03:15:20;3.00;;;2.20;;
11955;SDS011;6038;52.276;10.530;2023-07-13T03:17:46;3.67;;;2.20;;
11955;SDS011;6038;52.276;10.530;2023-07-13T03:20:13;3.87;;;2.30;;
11955;SDS011;6038;52.276;10.530;2023-07-13T03:22:39;2.70;;;2.10;;
11955;SDS011;6038;52.276;10.530;2023-07-13T03:25:05;2.70;;;2.10;;
11955;SDS011;6038;52.276;10.530;2023-07-13T03:27:31;4.37;;;2.40;;
11955;SDS011;6038;52.276;10.530;2023-07-13T03:29:57;3.33;;;2.30;;
11955;SDS011;6038;52.276;10.530;2023-07-13T03:32:23;3.67;;;2.13;;
11955;SDS011;6038;52.276;10.530;2023-07-13T03:34:49;3.80;;;2.33;;
11955;SDS011;6038;52.276;10.530;2023-07-13T03:37:15;4.90;;;2.10;;
11955;SDS011;6038;52.276;10.530;2023-07-13T03:39:41;4.97;;;2.40;;
11955;SDS011;6038;52.276;10.530;2023-07-13T03:42:07;5.27;;;2.10;;
11955;SDS011;6038;52.276;10.530;2023-07-13T03:44:34;5.30;;;2.07;;
11955;SDS011;6038;52.276;10.530;2023-07-13T03:47:00;5.07;;;2.50;;
11955;SDS011;6038;52.276;10.530;2023-07-13T03:49:26;5.07;;;2.37;;
11955;SDS011;6038;52.276;10.530;2023-07-13T03:51:52;3.43;;;2.13;;
11955;SDS011;6038;52.276;10.530;2023-07-13T03:54:18;2.73;;;2.10;;
11955;SDS011;6038;52.276;10.530;2023-07-13T03:56:44;3.53;;;2.30;;
11955;SDS011;6038;52.276;10.530;2023-07-13T03:59:10;3.10;;;1.90;;
11955;SDS011;6038;52.276;10.530;2023-07-13T04:01:36;6.30;;;2.43;;
11955;SDS011;6038;52.276;10.530;2023-07-13T04:04:02;5.60;;;2.40;;
11955;SDS011;6038;52.276;10.530;2023-07-13T04:06:29;5.53;;;2.37;;
11955;SDS011;6038;52.276;10.530;2023-07-13T04:08:56;3.30;;;2.00;;
11955;SDS011;6038;52.276;10.530;2023-07-13T04:11:24;4.80;;;2.50;;
11955;SDS011;6038;52.276;10.530;2023-07-13T04:13:50;4.10;;;2.23;;
11955;SDS011;6038;52.276;10.530;2023-07-13T04:16:17;2.77;;;2.10;;
11955;SDS011;6038;52.276;10.530;2023-07-13T04:18:43;3.73;;;2.00;;
11955;SDS011;6038;52.276;10.530;2023-07-13T04:21:09;5.70;;;2.10;;
11955;SDS011;6038;52.276;10.530;2023-07-13T04:23:36;6.47;;;2.60;;
11955;SDS011;6038;52.276;10.530;2023-07-13T04:26:03;3.70;;;2.10;;
11955;SDS011;6038;52.276;10.530;2023-07-13T04:28:29;3.83;;;2.00;;
11955;SDS011;6038;52.276;10.530;2023-07-13T04:30:55;6.20;;;2.30;;
11955;SDS011;6038;52.276;10.530;2023-07-13T04:33:21;3.83;;;2.37;;
11955;SDS011;6038;52.276;10.530;2023-07-13T04:35:48;2.87;;;1.97;;
11955;SDS011;6038;52.276;10.530;2023-07-13T04:38:14;6.47;;;2.37;;
11955;SDS011;6038;52.276;10.530;2023-07-13T04:40:42;6.17;;;2.10;;
11955;SDS011;6038;52.276;10.530;2023-07-13T04:43:08;4.43;;;1.87;;
11955;SDS011;6038;52.276;10.530;2023-07-13T04:45:34;3.73;;;2.10;;
11955;SDS011;6038;52.276;10.530;2023-07-13T04:48:01;5.20;;;2.20;;
11955;SDS011;6038;52.276;10.530;2023-07-13T04:50:27;4.63;;;2.20;;
11955;SDS011;6038;52.276;10.530;2023-07-13T04:52:53;6.13;;;2.20;;
11955;SDS011;6038;52.276;10.530;2023-07-13T04:55:19;4.00;;;2.13;;
11955;SDS011;6038;52.276;10.530;2023-07-13T04:57:45;2.57;;;2.13;;
11955;SDS011;6038;52.276;10.530;2023-07-13T05:00:11;6.77;;;2.33;;
11955;SDS011;6038;52.276;10.530;2023-07-13T05:02:38;6.23;;;2.20;;
11955;SDS011;6038;52.276;10.530;2023-07-13T05:05:05;3.03;;;2.00;;
11955;SDS011;6038;52.276;10.530;2023-07-13T05:07:31;3.63;;;1.93;;
11955;SDS011;6038;52.276;10.530;2023-07-13T05:09:58;5.10;;;2.33;;
11955;SDS011;6038;52.276;10.530;2023-07-13T05:12:24;3.67;;;2.10;;
11955;SDS011;6038;52.276;10.530;2023-07-13T05:14:50;3.13;;;2.00;;
11955;SDS011;6038;52.276;10.530;2023-07-13T05:17:16;6.85;;;1.95;;
11955;SDS011;6038;52.276;10.530;2023-07-13T05:19:42;5.18;;;2.20;;
11955;SDS011;6038;52.276;10.530;2023-07-13T05:22:08;4.07;;;2.03;;
11955;SDS011;6038;52.276;10.530;2023-07-13T05:24:34;4.63;;;2.30;;
11955;SDS011;6038;52.276;10.530;2023-07-13T05:27:00;3.30;;;1.90;;
11955;SDS011;6038;52.276;10.530;2023-07-13T05:29:26;5.63;;;2.07;;
11955;SDS011;6038;52.276;10.530;2023-07-13T05:31:53;3.53;;;1.90;;
11955;SDS011;6038;52.276;10.530;2023-07-13T05:34:19;4.00;;;1.87;;
11955;SDS011;6038;52.276;10.530;2023-07-13T05:36:45;4.47;;;2.17;;
11955;SDS011;6038;52.276;10.530;2023-07-13T05:39:11;7.80;;;2.33;;
11955;SDS011;6038;52.276;10.530;2023-07-13T05:41:37;3.80;;;1.83;;
11955;SDS011;6038;52.276;10.530;2023-07-13T05:44:03;5.27;;;1.87;;
11955;SDS011;6038;52.276;10.530;2023-07-13T05:46:29;3.10;;;2.20;;
11955;SDS011;6038;52.276;10.530;2023-07-13T05:48:55;5.00;;;2.13;;
11955;SDS011;6038;52.276;10.530;2023-07-13T05:51:22;4.65;;;1.92;;
11955;SDS011;6038;52.276;10.530;2023-07-13T05:53:48;7.10;;;2.20;;
11955;SDS011;6038;52.276;10.530;2023-07-13T05:56:13;4.70;;;1.90;;
11955;SDS011;6038;52.276;10.530;2023-07-13T05:58:39;5.75;;;1.80;;
11955;SDS011;6038;52.276;10.530;2023-07-13T06:01:09;6.03;;;1.90;;
11955;SDS011;6038;52.276;10.530;2023-07-13T06:03:36;3.78;;;1.88;;
11955;SDS011;6038;52.276;10.530;2023-07-13T06:06:05;6.75;;;2.30;;
11955;SDS011;6038;52.276;10.530;2023-07-13T06:08:31;4.60;;;2.00;;
11955;SDS011;6038;52.276;10.530;2023-07-13T06:11:02;3.13;;;1.55;;
11955;SDS011;6038;52.276;10.530;2023-07-13T06:13:28;6.30;;;2.10;;
11955;SDS011;6038;52.276;10.530;2023-07-13T06:15:54;3.90;;;1.58;;
11955;SDS011;6038;52.276;10.530;2023-07-13T06:18:20;5.72;;;2.03;;
11955;SDS011;6038;52.276;10.530;2023-07-13T06:20:46;6.82;;;1.88;;
11955;SDS011;6038;52.276;10.530;2023-07-13T06:23:12;4.68;;;2.15;;
11955;SDS011;6038;52.276;10.530;2023-07-13T06:25:39;7.40;;;2.10;;
11955;SDS011;6038;52.276;10.530;2023-07-13T06:28:05;6.53;;;2.03;;
11955;SDS011;6038;52.276;10.530;2023-07-13T06:30:31;5.43;;;2.53;;
11955;SDS011;6038;52.276;10.530;2023-07-13T06:32:57;3.90;;;1.92;;
11955;SDS011;6038;52.276;10.530;2023-07-13T06:35:23;3.05;;;1.70;;
11955;SDS011;6038;52.276;10.530;2023-07-13T06:37:50;5.53;;;2.08;;
11955;SDS011;6038;52.276;10.530;2023-07-13T06:40:16;7.55;;;2.22;;
11955;SDS011;6038;52.276;10.530;2023-07-13T06:42:42;7.05;;;2.15;;
11955;SDS011;6038;52.276;10.530;2023-07-13T06:45:08;7.43;;;2.10;;
11955;SDS011;6038;52.276;10.530;2023-07-13T06:47:34;8.52;;;2.45;;
11955;SDS011;6038;52.276;10.530;2023-07-13T06:50:00;6.18;;;2.05;;
11955;SDS011;6038;52.276;10.530;2023-07-13T06:52:26;6.30;;;2.13;;
11955;SDS011;6038;52.276;10.530;2023-07-13T06:54:52;6.57;;;2.10;;
11955;SDS011;6038;52.276;10.530;2023-07-13T06:57:18;6.25;;;2.13;;
11955;SDS011;6038;52.276;10.530;2023-07-13T06:59:44;7.75;;;2.58;;
11955;SDS011;6038;52.276;10.530;2023-07-13T07:02:10;6.78;;;2.33;;
11955;SDS011;6038;52.276;10.530;2023-07-13T07:04:37;6.82;;;2.50;;
11955;SDS011;6038;52.276;10.530;2023-07-13T07:07:03;5.47;;;2.20;;
11955;SDS011;6038;52.276;10.530;2023-07-13T07:09:29;7.18;;;2.50;;
11955;SDS011;6038;52.276;10.530;2023-07-13T07:11:56;8.40;;;2.53;;
11955;SDS011;6038;52.276;10.530;2023-07-13T07:14:22;4.95;;;2.28;;
11955;SDS011;6038;52.276;10.530;2023-07-13T07:16:49;10.23;;;2.65;;
11955;SDS011;6038;52.276;10.530;2023-07-13T07:19:15;5.47;;;2.25;;
11955;SDS011;6038;52.276;10.530;2023-07-13T07:21:41;8.95;;;2.88;;
11955;SDS011;6038;52.276;10.530;2023-07-13T07:24:07;5.43;;;2.30;;
11955;SDS011;6038;52.276;10.530;2023-07-13T07:26:33;4.72;;;2.28;;
11955;SDS011;6038;52.276;10.530;2023-07-13T07:29:00;7.70;;;2.70;;
11955;SDS011;6038;52.276;10.530;2023-07-13T07:31:25;5.68;;;2.47;;
11955;SDS011;6038;52.276;10.530;2023-07-13T07:33:51;7.45;;;2.30;;
11955;SDS011;6038;52.276;10.530;2023-07-13T07:36:17;6.32;;;2.33;;
11955;SDS011;6038;52.276;10.530;2023-07-13T07:38:44;7.78;;;2.22;;
11955;SDS011;6038;52.276;10.530;2023-07-13T07:41:10;4.68;;;2.55;;
11955;SDS011;6038;52.276;10.530;2023-07-13T07:43:36;5.50;;;2.20;;
11955;SDS011;6038;52.276;10.530;2023-07-13T07:46:02;4.80;;;2.38;;
11955;SDS011;6038;52.276;10.530;2023-07-13T07:48:28;5.53;;;2.15;;
11955;SDS011;6038;52.276;10.530;2023-07-13T07:50:54;3.72;;;1.70;;
11955;SDS011;6038;52.276;10.530;2023-07-13T07:53:20;5.03;;;1.95;;
11955;SDS011;6038;52.276;10.530;2023-07-13T07:55:46;6.30;;;2.13;;
11955;SDS011;6038;52.276;10.530;2023-07-13T07:58:12;4.28;;;2.05;;
11955;SDS011;6038;52.276;10.530;2023-07-13T08:00:39;3.78;;;1.55;;
11955;SDS011;6038;52.276;10.530;2023-07-13T08:03:05;5.35;;;1.55;;
11955;SDS011;6038;52.276;10.530;2023-07-13T08:05:31;4.95;;;1.65;;
11955;SDS011;6038;52.276;10.530;2023-07-13T08:07:57;6.05;;;1.80;;
11955;SDS011;6038;52.276;10.530;2023-07-13T08:10:23;3.90;;;1.40;;
11955;SDS011;6038;52.276;10.530;2023-07-13T08:12:49;2.97;;;1.50;;
11955;SDS011;6038;52.276;10.530;2023-07-13T08:15:15;4.57;;;1.55;;
11955;SDS011;6038;52.276;10.530;2023-07-13T08:17:42;2.85;;;1.60;;
11955;SDS011;6038;52.276;10.530;2023-07-13T08:20:08;8.40;;;1.52;;
11955;SDS011;6038;52.276;10.530;2023-07-13T08:22:34;3.10;;;1.60;;
11955;SDS011;6038;52.276;10.530;2023-07-13T08:25:01;5.55;;;1.40;;
11955;SDS011;6038;52.276;10.530;2023-07-13T08:27:28;5.13;;;1.80;;
11955;SDS011;6038;52.276;10.530;2023-07-13T08:29:54;4.50;;;1.67;;
11955;SDS011;6038;52.276;10.530;2023-07-13T08:32:22;3.42;;;1.48;;
11955;SDS011;6038;52.276;10.530;2023-07-13T08:34:48;3.40;;;1.15;;
11955;SDS011;6038;52.276;10.530;2023-07-13T08:37:14;3.33;;;1.40;;
11955;SDS011;6038;52.276;10.530;2023-07-13T08:39:41;5.43;;;1.50;;
11955;SDS011;6038;52.276;10.530;2023-07-13T08:44:41;2.95;;;1.60;;
11955;SDS011;6038;52.276;10.530;2023-07-13T08:47:08;3.80;;;1.45;;
11955;SDS011;6038;52.276;10.530;2023-07-13T08:49:35;5.90;;;1.50;;
11955;SDS011;6038;52.276;10.530;2023-07-13T08:52:04;1.85;;;1.10;;
11955;SDS011;6038;52.276;10.530;2023-07-13T08:54:36;4.65;;;1.30;;
11955;SDS011;6038;52.276;10.530;2023-07-13T08:57:11;5.85;;;1.30;;
11955;SDS011;6038;52.276;10.530;2023-07-13T08:59:38;3.63;;;1.33;;
11955;SDS011;6038;52.276;10.530;2023-07-13T09:04:45;4.75;;;1.60;;
11955;SDS011;6038;52.276;10.530;2023-07-13T09:07:16;2.95;;;1.40;;
11955;SDS011;6038;52.276;10.530;2023-07-13T09:12:33;5.68;;;1.50;;
11955;SDS011;6038;52.276;10.530;2023-07-13T09:15:01;3.15;;;1.50;;
11955;SDS011;6038;52.276;10.530;2023-07-13T09:17:32;4.90;;;1.80;;
11955;SDS011;6038;52.276;10.530;2023-07-13T09:20:01;3.70;;;2.00;;
11955;SDS011;6038;52.276;10.530;2023-07-13T09:22:29;3.67;;;1.52;;
11955;SDS011;6038;52.276;10.530;2023-07-13T09:25:15;6.28;;;1.70;;
11955;SDS011;6038;52.276;10.530;2023-07-13T09:27:46;5.43;;;1.50;;
11955;SDS011;6038;52.276;10.530;2023-07-13T09:32:39;2.35;;;1.60;;
11955;SDS011;6038;52.276;10.530;2023-07-13T09:35:11;4.45;;;1.55;;
11955;SDS011;6038;52.276;10.530;2023-07-13T09:37:38;2.10;;;1.27;;
11955;SDS011;6038;52.276;10.530;2023-07-13T09:40:07;3.42;;;1.50;;
11955;SDS011;6038;52.276;10.530;2023-07-13T09:42:36;2.55;;;1.38;;
11955;SDS011;6038;52.276;10.530;2023-07-13T09:45:03;3.80;;;1.58;;
11955;SDS011;6038;52.276;10.530;2023-07-13T09:47:32;4.55;;;1.80;;
11955;SDS011;6038;52.276;10.530;2023-07-13T09:50:04;4.88;;;1.80;;
11955;SDS011;6038;52.276;10.530;2023-07-13T09:52:41;3.70;;;1.40;;
11955;SDS011;6038;52.276;10.530;2023-07-13T09:57:50;4.82;;;1.80;;
11955;SDS011;6038;52.276;10.530;2023-07-13T10:00:25;7.80;;;1.60;;
11955;SDS011;6038;52.276;10.530;2023-07-13T10:02:57;5.03;;;1.67;;
11955;SDS011;6038;52.276;10.530;2023-07-13T10:05:24;5.30;;;1.52;;
11955;SDS011;6038;52.276;10.530;2023-07-13T10:07:50;4.45;;;1.83;;
11955;SDS011;6038;52.276;10.530;2023-07-13T10:10:18;4.35;;;1.63;;
11955;SDS011;6038;52.276;10.530;2023-07-13T10:12:45;2.60;;;1.23;;
11955;SDS011;6038;52.276;10.530;2023-07-13T10:15:16;3.85;;;1.52;;
11955;SDS011;6038;52.276;10.530;2023-07-13T10:17:43;3.42;;;1.50;;
11955;SDS011;6038;52.276;10.530;2023-07-13T10:20:10;11.25;;;2.08;;
11955;SDS011;6038;52.276;10.530;2023-07-13T10:22:51;3.67;;;1.60;;
11955;SDS011;6038;52.276;10.530;2023-07-13T10:25:22;4.93;;;1.90;;
11955;SDS011;6038;52.276;10.530;2023-07-13T10:27:50;3.97;;;1.83;;
11955;SDS011;6038;52.276;10.530;2023-07-13T10:32:45;5.30;;;2.00;;
11955;SDS011;6038;52.276;10.530;2023-07-13T10:35:12;2.80;;;1.40;;
11955;SDS011;6038;52.276;10.530;2023-07-13T10:37:49;4.18;;;1.50;;
11955;SDS011;6038;52.276;10.530;2023-07-13T10:40:18;5.22;;;1.80;;
11955;SDS011;6038;52.276;10.530;2023-07-13T10:42:45;5.35;;;1.52;;
11955;SDS011;6038;52.276;10.530;2023-07-13T10:45:20;2.38;;;1.27;;
11955;SDS011;6038;52.276;10.530;2023-07-13T10:47:47;4.30;;;1.70;;
11955;SDS011;6038;52.276;10.530;2023-07-13T10:50:15;3.00;;;1.48;;
11955;SDS011;6038;52.276;10.530;2023-07-13T10:52:46;6.63;;;1.90;;
11955;SDS011;6038;52.276;10.530;2023-07-13T10:58:01;3.33;;;1.80;;
11955;SDS011;6038;52.276;10.530;2023-07-13T11:00:30;5.30;;;1.75;;
11955;SDS011;6038;52.276;10.530;2023-07-13T11:02:57;5.20;;;1.83;;
11955;SDS011;6038;52.276;10.530;2023-07-13T11:05:30;2.80;;;1.50;;
11955;SDS011;6038;52.276;10.530;2023-07-13T11:08:13;3.10;;;1.50;;
11955;SDS011;6038;52.276;10.530;2023-07-13T11:15:59;5.38;;;1.50;;
11955;SDS011;6038;52.276;10.530;2023-07-13T11:18:25;4.25;;;1.70;;
11955;SDS011;6038;52.276;10.530;2023-07-13T11:20:51;2.42;;;1.60;;
11955;SDS011;6038;52.276;10.530;2023-07-13T11:23:18;4.35;;;1.85;;
11955;SDS011;6038;52.276;10.530;2023-07-13T11:25:45;3.63;;;1.58;;
11955;SDS011;6038;52.276;10.530;2023-07-13T11:35:37;3.55;;;1.38;;
11955;SDS011;6038;52.276;10.530;2023-07-13T11:38:19;2.97;;;1.60;;
11955;SDS011;6038;52.276;10.530;2023-07-13T11:40:46;2.88;;;1.50;;
11955;SDS011;6038;52.276;10.530;2023-07-13T11:43:14;3.00;;;1.42;;
11955;SDS011;6038;52.276;10.530;2023-07-13T11:45:41;3.97;;;1.85;;
11955;SDS011;6038;52.276;10.530;2023-07-13T11:51:04;4.95;;;1.50;;
11955;SDS011;6038;52.276;10.530;2023-07-13T11:53:36;3.20;;;1.55;;
11955;SDS011;6038;52.276;10.530;2023-07-13T11:56:03;4.00;;;1.65;;
11955;SDS011;6038;52.276;10.530;2023-07-13T11:58:31;2.38;;;1.58;;
11955;SDS011;6038;52.276;10.530;2023-07-13T12:00:58;2.42;;;1.55;;
11955;SDS011;6038;52.276;10.530;2023-07-13T12:03:26;2.53;;;1.60;;
11955;SDS011;6038;52.276;10.530;2023-07-13T12:08:25;2.42;;;1.52;;
11955;SDS011;6038;52.276;10.530;2023-07-13T12:11:03;3.97;;;1.67;;
11955;SDS011;6038;52.276;10.530;2023-07-13T12:13:36;3.25;;;1.65;;
11955;SDS011;6038;52.276;10.530;2023-07-13T12:16:17;3.22;;;1.55;;
11955;SDS011;6038;52.276;10.530;2023-07-13T12:18:47;3.30;;;1.40;;
11955;SDS011;6038;52.276;10.530;2023-07-13T12:21:16;2.85;;;1.40;;
11955;SDS011;6038;52.276;10.530;2023-07-13T12:23:43;3.03;;;1.80;;
11955;SDS011;6038;52.276;10.530;2023-07-13T12:26:10;4.63;;;1.60;;
11955;SDS011;6038;52.276;10.530;2023-07-13T12:31:07;3.28;;;1.40;;
11955;SDS011;6038;52.276;10.530;2023-07-13T12:33:45;4.70;;;1.80;;
11955;SDS011;6038;52.276;10.530;2023-07-13T12:36:11;2.83;;;1.48;;
11955;SDS011;6038;52.276;10.530;2023-07-13T12:38:37;3.92;;;1.40;;
11955;SDS011;6038;52.276;10.530;2023-07-13T12:41:05;1.95;;;1.30;;
11955;SDS011;6038;52.276;10.530;2023-07-13T12:43:35;3.20;;;1.75;;
11955;SDS011;6038;52.276;10.530;2023-07-13T12:46:03;4.30;;;1.70;;
11955;SDS011;6038;52.276;10.530;2023-07-13T12:48:30;4.40;;;1.80;;
11955;SDS011;6038;52.276;10.530;2023-07-13T12:51:03;2.63;;;1.60;;
11955;SDS011;6038;52.276;10.530;2023-07-13T12:53:29;2.35;;;1.48;;
11955;SDS011;6038;52.276;10.530;2023-07-13T12:56:00;2.90;;;1.70;;
11955;SDS011;6038;52.276;10.530;2023-07-13T12:58:37;4.70;;;1.60;;
11955;SDS011;6038;52.276;10.530;2023-07-13T13:01:04;2.97;;;1.65;;
11955;SDS011;6038;52.276;10.530;2023-07-13T13:03:52;3.85;;;1.50;;
11955;SDS011;6038;52.276;10.530;2023-07-13T13:06:20;3.20;;;1.50;;
11955;SDS011;6038;52.276;10.530;2023-07-13T13:08:49;4.13;;;1.80;;
11955;SDS011;6038;52.276;10.530;2023-07-13T13:11:16;3.03;;;1.50;;
11955;SDS011;6038;52.276;10.530;2023-07-13T13:13:42;3.75;;;1.70;;
11955;SDS011;6038;52.276;10.530;2023-07-13T13:16:29;3.53;;;1.50;;
11955;SDS011;6038;52.276;10.530;2023-07-13T13:19:01;4.07;;;1.77;;
11955;SDS011;6038;52.276;10.530;2023-07-13T13:21:31;2.95;;;1.67;;
11955;SDS011;6038;52.276;10.530;2023-07-13T13:23:57;3.97;;;1.83;;
11955;SDS011;6038;52.276;10.530;2023-07-13T13:26:24;3.75;;;1.60;;
11955;SDS011;6038;52.276;10.530;2023-07-13T13:28:51;3.08;;;1.63;;
11955;SDS011;6038;52.276;10.530;2023-07-13T13:31:17;4.72;;;1.88;;
11955;SDS011;6038;52.276;10.530;2023-07-13T13:33:43;5.43;;;1.92;;
11955;SDS011;6038;52.276;10.530;2023-07-13T13:36:17;2.75;;;1.63;;
11955;SDS011;6038;52.276;10.530;2023-07-13T13:38:44;3.05;;;1.70;;
11955;SDS011;6038;52.276;10.530;2023-07-13T13:41:11;5.45;;;1.92;;
11955;SDS011;6038;52.276;10.530;2023-07-13T13:43:38;2.58;;;1.60;;
11955;SDS011;6038;52.276;10.530;2023-07-13T13:46:05;3.35;;;1.77;;
11955;SDS011;6038;52.276;10.530;2023-07-13T13:48:37;3.55;;;1.48;;
11955;SDS011;6038;52.276;10.530;2023-07-13T13:51:06;1.83;;;1.40;;
11955;SDS011;6038;52.276;10.530;2023-07-13T13:53:37;6.93;;;1.70;;
11955;SDS011;6038;52.276;10.530;2023-07-13T13:56:03;5.35;;;1.85;;
11955;SDS011;6038;52.276;10.530;2023-07-13T13:58:29;1.88;;;1.45;;
11955;SDS011;6038;52.276;10.530;2023-07-13T14:00:56;2.85;;;1.50;;
11955;SDS011;6038;52.276;10.530;2023-07-13T14:03:23;3.65;;;1.60;;
11955;SDS011;6038;52.276;10.530;2023-07-13T14:05:50;2.03;;;1.52;;
11955;SDS011;6038;52.276;10.530;2023-07-13T14:08:18;5.22;;;1.55;;
11955;SDS011;6038;52.276;10.530;2023-07-13T14:10:44;4.07;;;1.85;;
11955;SDS011;6038;52.276;10.530;2023-07-13T14:15:46;3.53;;;1.60;;
11955;SDS011;6038;52.276;10.530;2023-07-13T14:18:12;2.85;;;1.60;;
11955;SDS011;6038;52.276;10.530;2023-07-13T14:20:43;4.78;;;1.70;;
11955;SDS011;6038;52.276;10.530;2023-07-13T14:23:09;7.65;;;1.98;;
11955;SDS011;6038;52.276;10.530;2023-07-13T14:25:35;4.97;;;1.73;;
11955;SDS011;6038;52.276;10.530;2023-07-13T14:28:04;4.60;;;1.70;;
11955;SDS011;6038;52.276;10.530;2023-07-13T14:30:36;5.72;;;2.08;;
11955;SDS011;6038;52.276;10.530;2023-07-13T14:33:04;8.00;;;2.00;;
11955;SDS011;6038;52.276;10.530;2023-07-13T14:35:32;4.70;;;2.03;;
11955;SDS011;6038;52.276;10.530;2023-07-13T14:37:58;4.40;;;1.70;;
11955;SDS011;6038;52.276;10.530;2023-07-13T14:40:25;2.45;;;1.65;;
11955;SDS011;6038;52.276;10.530;2023-07-13T14:42:52;3.47;;;1.83;;
11955;SDS011;6038;52.276;10.530;2023-07-13T14:45:19;3.20;;;1.60;;
11955;SDS011;6038;52.276;10.530;2023-07-13T14:47:45;4.43;;;2.10;;
11955;SDS011;6038;52.276;10.530;2023-07-13T14:50:16;2.03;;;1.35;;
11955;SDS011;6038;52.276;10.530;2023-07-13T14:52:43;2.20;;;1.60;;
11955;SDS011;6038;52.276;10.530;2023-07-13T14:55:16;2.53;;;1.30;;
11955;SDS011;6038;52.276;10.530;2023-07-13T14:57:43;1.95;;;1.45;;
11955;SDS011;6038;52.276;10.530;2023-07-13T15:00:12;3.28;;;1.40;;
11955;SDS011;6038;52.276;10.530;2023-07-13T15:02:40;3.90;;;1.40;;
11955;SDS011;6038;52.276;10.530;2023-07-13T15:05:18;4.93;;;1.60;;
11955;SDS011;6038;52.276;10.530;2023-07-13T15:07:45;4.18;;;1.63;;
11955;SDS011;6038;52.276;10.530;2023-07-13T15:10:13;1.92;;;1.35;;
11955;SDS011;6038;52.276;10.530;2023-07-13T15:12:39;4.05;;;1.70;;
11955;SDS011;6038;52.276;10.530;2023-07-13T15:15:05;3.63;;;1.50;;
11955;SDS011;6038;52.276;10.530;2023-07-13T15:17:32;2.65;;;1.40;;
11955;SDS011;6038;52.276;10.530;2023-07-13T15:19:59;4.72;;;1.52;;
11955;SDS011;6038;52.276;10.530;2023-07-13T15:22:25;3.05;;;1.55;;
11955;SDS011;6038;52.276;10.530;2023-07-13T15:24:51;2.75;;;1.50;;
11955;SDS011;6038;52.276;10.530;2023-07-13T15:27:17;3.35;;;1.80;;
11955;SDS011;6038;52.276;10.530;2023-07-13T15:29:43;3.47;;;1.70;;
11955;SDS011;6038;52.276;10.530;2023-07-13T15:32:13;3.17;;;1.52;;